createdAt,value
2019-05-29T00:00:09.909Z,0.33
2019-05-29T00:02:36.471Z,0.30
2019-05-29T00:05:05.990Z,0.50
2019-05-29T00:07:32.590Z,0.40
2019-05-29T00:09:58.853Z,0.30
2019-05-29T00:12:25.143Z,0.60
2019-05-29T00:14:51.272Z,0.33
2019-05-29T00:17:18.766Z,0.50
2019-05-29T00:19:44.976Z,0.60
2019-05-29T00:22:12.327Z,0.33
2019-05-29T00:24:38.666Z,0.40
2019-05-29T00:27:05.364Z,0.50
2019-05-29T00:29:31.838Z,0.50
2019-05-29T00:31:57.969Z,0.40
2019-05-29T00:34:24.326Z,0.60
2019-05-29T00:36:50.768Z,0.33
2019-05-29T00:39:17.181Z,0.40
2019-05-29T00:41:43.313Z,0.40
2019-05-29T00:44:11.109Z,0.60
2019-05-29T00:46:37.746Z,0.40
2019-05-29T00:49:04.021Z,0.50
2019-05-29T00:51:30.156Z,0.40
2019-05-29T00:53:56.393Z,0.40
2019-05-29T00:56:22.847Z,0.70
2019-05-29T00:58:49.119Z,0.30
2019-05-29T01:01:15.515Z,0.60
2019-05-29T01:03:42.177Z,0.67
2019-05-29T01:06:08.323Z,0.70
2019-05-29T01:08:34.445Z,0.97
2019-05-29T01:11:00.654Z,1.00
2019-05-29T01:13:27.000Z,1.23
2019-05-29T01:15:53.165Z,1.40
2019-05-29T01:18:19.986Z,1.60
2019-05-29T01:20:46.361Z,1.67
2019-05-29T01:23:12.785Z,1.73
2019-05-29T01:25:40.629Z,1.57
2019-05-29T01:28:06.758Z,1.77
2019-05-29T01:30:33.356Z,1.80
2019-05-29T01:32:59.495Z,1.83
2019-05-29T01:35:25.880Z,1.70
2019-05-29T01:37:52.037Z,2.00
2019-05-29T01:40:21.962Z,1.90
2019-05-29T01:42:49.795Z,1.87
2019-05-29T01:45:15.434Z,1.20
2019-05-29T01:47:41.891Z,1.43
2019-05-29T01:50:08.348Z,1.30
2019-05-29T01:52:34.465Z,1.67
2019-05-29T01:55:03.838Z,1.53
2019-05-29T01:57:29.963Z,1.20
2019-05-29T01:59:56.385Z,1.57
2019-05-29T02:02:22.531Z,1.20
2019-05-29T02:04:48.669Z,1.53
2019-05-29T02:07:15.816Z,1.40
2019-05-29T02:09:42.273Z,1.60
2019-05-29T02:12:08.410Z,1.30
2019-05-29T02:14:34.547Z,1.70
2019-05-29T02:17:01.041Z,1.90
2019-05-29T02:19:28.199Z,1.57
2019-05-29T02:21:54.819Z,2.13
2019-05-29T02:24:21.186Z,2.50
2019-05-29T02:26:47.577Z,1.87
2019-05-29T02:29:13.721Z,1.97
2019-05-29T02:31:40.071Z,2.60
2019-05-29T02:34:07.533Z,2.30
2019-05-29T02:36:34.173Z,3.00
2019-05-29T02:39:00.669Z,2.13
2019-05-29T02:41:28.413Z,2.57
2019-05-29T02:43:54.849Z,3.30
2019-05-29T02:46:21.751Z,3.37
2019-05-29T02:48:48.913Z,3.60
2019-05-29T02:51:15.917Z,3.90
2019-05-29T02:53:42.172Z,4.07
2019-05-29T02:56:08.318Z,3.90
2019-05-29T02:58:34.564Z,3.87
2019-05-29T03:01:01.101Z,4.13
2019-05-29T03:03:31.093Z,4.00
2019-05-29T03:05:56.771Z,5.50
2019-05-29T03:08:24.586Z,4.10
2019-05-29T03:10:51.366Z,3.87
2019-05-29T03:13:18.415Z,4.50
2019-05-29T03:15:44.645Z,4.17
2019-05-29T03:18:11.334Z,4.37
2019-05-29T03:20:37.648Z,4.20
2019-05-29T03:23:03.966Z,3.93
2019-05-29T03:25:30.648Z,4.70
2019-05-29T03:27:57.046Z,5.53
2019-05-29T03:30:23.281Z,5.47
2019-05-29T03:32:49.440Z,5.87
2019-05-29T03:35:15.669Z,5.43
2019-05-29T03:37:42.087Z,5.60
2019-05-29T03:40:08.644Z,6.20
2019-05-29T03:42:34.846Z,9.33
2019-05-29T03:45:01.236Z,7.23
2019-05-29T03:47:28.700Z,5.73
2019-05-29T03:49:55.033Z,7.90
2019-05-29T03:52:21.267Z,9.53
2019-05-29T03:54:47.432Z,7.77
2019-05-29T03:57:13.734Z,6.63
2019-05-29T03:59:40.009Z,8.23
2019-05-29T04:02:06.956Z,7.87
2019-05-29T04:04:33.583Z,7.77
2019-05-29T04:07:01.147Z,8.47
2019-05-29T04:09:29.076Z,9.87
2019-05-29T04:11:56.027Z,8.10
2019-05-29T04:14:22.660Z,9.00
2019-05-29T04:16:59.267Z,8.40
2019-05-29T04:19:18.464Z,8.03
2019-05-29T04:21:45.397Z,8.67
2019-05-29T04:24:13.931Z,8.40
2019-05-29T04:26:40.156Z,9.97
2019-05-29T04:29:07.140Z,12.73
2019-05-29T04:31:34.497Z,10.30
2019-05-29T04:34:00.920Z,8.63
2019-05-29T04:36:28.706Z,9.38
2019-05-29T04:38:55.574Z,12.53
2019-05-29T04:41:21.792Z,11.43
2019-05-29T04:43:48.121Z,10.73
2019-05-29T04:46:14.374Z,11.17
2019-05-29T04:48:40.888Z,10.83
2019-05-29T04:51:07.532Z,8.83
2019-05-29T04:53:34.198Z,8.87
2019-05-29T04:56:01.823Z,9.90
2019-05-29T04:58:28.791Z,9.23
2019-05-29T05:00:59.268Z,8.13
2019-05-29T05:03:23.155Z,8.37
2019-05-29T05:05:49.527Z,9.87
2019-05-29T05:08:15.904Z,8.60
2019-05-29T05:10:42.233Z,8.20
2019-05-29T05:13:09.096Z,9.00
2019-05-29T05:15:38.013Z,8.50
2019-05-29T05:18:06.206Z,8.00
2019-05-29T05:20:33.918Z,8.13
2019-05-29T05:23:00.408Z,9.80
2019-05-29T05:25:26.678Z,7.97
2019-05-29T05:27:52.828Z,11.18
2019-05-29T05:30:19.410Z,8.80
2019-05-29T05:32:45.736Z,7.67
2019-05-29T05:35:14.516Z,7.67
2019-05-29T05:37:41.037Z,8.67
2019-05-29T05:40:07.661Z,9.40
2019-05-29T05:42:34.855Z,7.93
2019-05-29T05:45:01.321Z,7.47
2019-05-29T05:47:43.486Z,11.08
2019-05-29T05:49:57.249Z,8.77
2019-05-29T05:52:23.495Z,8.50
2019-05-29T05:54:50.046Z,7.27
2019-05-29T05:57:16.226Z,7.63
2019-05-29T05:59:42.671Z,6.93
2019-05-29T06:02:09.217Z,6.63
2019-05-29T06:04:35.879Z,6.97
2019-05-29T06:07:02.397Z,7.50
2019-05-29T06:09:28.642Z,6.93
2019-05-29T06:11:54.859Z,7.97
2019-05-29T06:14:21.345Z,6.80
2019-05-29T06:16:47.575Z,6.30
2019-05-29T06:19:13.936Z,6.07
2019-05-29T06:21:40.901Z,5.77
2019-05-29T06:24:07.538Z,8.10
2019-05-29T06:26:34.851Z,7.37
2019-05-29T06:29:01.135Z,6.60
2019-05-29T06:31:27.524Z,7.53
2019-05-29T06:33:54.191Z,5.37
2019-05-29T06:36:20.440Z,5.03
2019-05-29T06:38:47.131Z,5.93
2019-05-29T06:41:13.554Z,5.40
2019-05-29T06:43:40.483Z,6.50
2019-05-29T06:46:06.892Z,5.10
2019-05-29T06:48:50.252Z,5.07
2019-05-29T06:51:01.315Z,4.77
2019-05-29T06:53:27.504Z,5.73
2019-05-29T06:55:55.678Z,5.40
2019-05-29T06:58:22.240Z,5.40
2019-05-29T07:00:48.424Z,5.00
2019-05-29T07:03:14.828Z,5.30
2019-05-29T07:05:46.667Z,5.03
2019-05-29T07:08:18.921Z,5.40
2019-05-29T07:10:38.537Z,5.80
2019-05-29T07:13:05.162Z,5.13
2019-05-29T07:15:32.264Z,5.07
2019-05-29T07:17:58.907Z,5.07
2019-05-29T07:20:25.662Z,4.93
2019-05-29T07:22:52.035Z,4.90
2019-05-29T07:25:19.216Z,4.73
2019-05-29T07:27:47.002Z,4.97
2019-05-29T07:30:14.551Z,5.40
2019-05-29T07:32:43.192Z,5.03
2019-05-29T07:35:11.320Z,5.30
2019-05-29T07:37:39.696Z,4.80
2019-05-29T07:40:07.449Z,4.43
2019-05-29T07:42:34.407Z,4.23
2019-05-29T07:45:00.891Z,4.57
2019-05-29T07:47:27.196Z,4.20
2019-05-29T07:49:54.299Z,4.20
2019-05-29T07:52:20.950Z,4.43
2019-05-29T07:54:48.072Z,4.10
2019-05-29T07:57:15.269Z,4.00
2019-05-29T07:59:42.698Z,3.67
2019-05-29T08:02:09.569Z,3.80
2019-05-29T08:04:36.433Z,4.13
2019-05-29T08:07:03.720Z,4.03
2019-05-29T08:09:30.102Z,3.77
2019-05-29T08:11:56.811Z,4.00
2019-05-29T08:14:23.224Z,3.20
2019-05-29T08:16:50.132Z,3.37
2019-05-29T08:19:16.396Z,3.70
2019-05-29T08:21:44.200Z,2.87
2019-05-29T08:24:10.841Z,3.50
2019-05-29T08:26:37.046Z,3.93
2019-05-29T08:29:03.664Z,3.40
2019-05-29T08:31:30.547Z,3.40
2019-05-29T08:33:56.767Z,4.33
2019-05-29T08:36:23.012Z,3.70
2019-05-29T08:38:49.400Z,3.43
2019-05-29T08:41:15.743Z,3.40
2019-05-29T08:43:42.523Z,3.57
2019-05-29T08:46:09.208Z,3.20
2019-05-29T08:48:35.379Z,3.43
2019-05-29T08:51:01.624Z,3.23
2019-05-29T08:53:27.805Z,2.90
2019-05-29T08:55:55.719Z,3.47
2019-05-29T08:58:23.772Z,3.23
2019-05-29T09:00:53.374Z,2.73
2019-05-29T09:03:18.200Z,2.77
2019-05-29T09:05:44.608Z,2.73
2019-05-29T09:08:11.177Z,2.80
2019-05-29T09:10:37.417Z,2.90
2019-05-29T09:13:05.253Z,3.27
2019-05-29T09:15:31.912Z,2.77
2019-05-29T09:17:58.264Z,2.60
2019-05-29T09:20:41.742Z,2.63
2019-05-29T09:22:53.011Z,2.20
2019-05-29T09:25:21.072Z,1.83
2019-05-29T09:27:47.479Z,1.83
2019-05-29T09:30:15.521Z,2.30
2019-05-29T09:32:50.428Z,2.17
2019-05-29T09:35:10.819Z,2.13
2019-05-29T09:37:37.120Z,1.80
2019-05-29T09:40:19.002Z,3.47
2019-05-29T09:42:45.687Z,2.70
2019-05-29T09:45:12.543Z,2.40
2019-05-29T09:47:38.673Z,2.40
2019-05-29T09:50:08.873Z,2.30
2019-05-29T09:52:35.318Z,3.23
2019-05-29T09:55:02.572Z,3.33
2019-05-29T09:57:28.983Z,2.93
2019-05-29T09:59:56.411Z,2.77
2019-05-29T10:02:23.511Z,2.50
2019-05-29T10:04:49.771Z,2.37
2019-05-29T10:07:16.131Z,2.57
2019-05-29T10:09:42.281Z,2.50
2019-05-29T10:12:08.620Z,2.43
2019-05-29T10:14:36.251Z,2.23
2019-05-29T10:17:08.026Z,2.23
2019-05-29T10:19:31.128Z,1.83
2019-05-29T10:21:58.329Z,2.13
2019-05-29T10:24:26.878Z,2.30
2019-05-29T10:26:52.996Z,2.07
2019-05-29T10:29:19.389Z,2.37
2019-05-29T10:31:47.232Z,1.90
2019-05-29T10:34:13.784Z,2.10
2019-05-29T10:36:40.190Z,2.27
2019-05-29T10:39:07.259Z,2.23
2019-05-29T10:41:33.554Z,2.13
2019-05-29T10:43:59.766Z,2.50
2019-05-29T10:46:25.932Z,1.80
2019-05-29T10:48:55.972Z,1.90
2019-05-29T10:51:21.149Z,2.13
2019-05-29T10:53:49.605Z,1.83
2019-05-29T10:56:15.823Z,1.43
2019-05-29T10:58:50.638Z,1.90
2019-05-29T11:01:10.449Z,1.33
2019-05-29T11:03:36.809Z,1.70
2019-05-29T11:06:03.304Z,1.50
2019-05-29T11:08:29.533Z,1.73
2019-05-29T11:10:56.321Z,2.03
2019-05-29T11:13:22.803Z,2.00
2019-05-29T11:15:49.327Z,1.60
2019-05-29T11:18:16.159Z,1.50
2019-05-29T11:20:42.719Z,1.10
2019-05-29T11:23:09.042Z,1.13
2019-05-29T11:25:35.937Z,1.10
2019-05-29T11:28:02.469Z,2.03
2019-05-29T11:30:28.634Z,2.27
2019-05-29T11:32:56.778Z,2.00
2019-05-29T11:35:23.055Z,1.53
2019-05-29T11:37:50.382Z,1.73
2019-05-29T11:40:17.386Z,1.40
2019-05-29T11:42:43.589Z,1.70
2019-05-29T11:45:11.710Z,1.30
2019-05-29T11:47:38.144Z,1.47
2019-05-29T11:50:19.207Z,1.50
2019-05-29T11:52:42.860Z,1.40
2019-05-29T11:55:08.132Z,1.23
2019-05-29T11:57:34.875Z,1.40
2019-05-29T12:00:16.365Z,1.17
2019-05-29T12:02:31.518Z,1.27
2019-05-29T12:05:01.154Z,1.17
2019-05-29T12:07:26.008Z,1.13
2019-05-29T12:09:53.226Z,1.20
2019-05-29T12:12:19.953Z,1.10
2019-05-29T12:15:00.277Z,1.03
2019-05-29T12:17:14.256Z,1.13
2019-05-29T12:19:40.793Z,1.20
2019-05-29T12:22:06.976Z,1.30
2019-05-29T12:24:33.236Z,1.60
2019-05-29T12:27:00.555Z,1.67
2019-05-29T12:29:27.116Z,1.40
2019-05-29T12:31:54.818Z,1.50
2019-05-29T12:34:21.338Z,2.10
2019-05-29T12:36:47.607Z,1.83
2019-05-29T12:39:13.755Z,1.93
2019-05-29T12:41:40.313Z,1.77
2019-05-29T12:44:07.368Z,1.67
2019-05-29T12:46:35.285Z,2.23
2019-05-29T12:49:01.781Z,1.80
2019-05-29T12:51:28.281Z,1.60
2019-05-29T12:53:55.770Z,1.20
2019-05-29T12:56:22.603Z,1.20
2019-05-29T12:58:48.977Z,1.20
2019-05-29T13:01:15.230Z,1.40
2019-05-29T13:03:44.984Z,1.57
2019-05-29T13:06:09.517Z,1.10
2019-05-29T13:08:35.841Z,1.27
2019-05-29T13:11:02.646Z,1.10
2019-05-29T13:13:29.189Z,1.00
2019-05-29T13:15:56.674Z,1.10
2019-05-29T13:18:23.169Z,1.00
2019-05-29T13:20:49.423Z,1.10
2019-05-29T13:23:16.890Z,1.40
2019-05-29T13:25:43.061Z,1.47
2019-05-29T13:28:09.275Z,0.80
2019-05-29T13:30:37.173Z,1.10
2019-05-29T13:33:07.368Z,1.13
2019-05-29T13:35:31.911Z,0.97
2019-05-29T13:37:58.920Z,0.93
2019-05-29T13:40:25.113Z,0.80
2019-05-29T13:42:51.441Z,0.70
2019-05-29T13:45:18.760Z,1.00
2019-05-29T13:47:45.193Z,1.40
2019-05-29T13:50:13.271Z,0.90
2019-05-29T13:52:40.032Z,1.37
2019-05-29T13:55:07.712Z,1.00
2019-05-29T13:57:34.085Z,1.20
2019-05-29T14:00:00.539Z,1.17
2019-05-29T14:02:26.774Z,1.03
2019-05-29T14:04:53.208Z,1.00
2019-05-29T14:07:19.356Z,1.10
2019-05-29T14:09:45.472Z,0.90
2019-05-29T14:12:12.764Z,0.80
2019-05-29T14:14:39.310Z,1.00
2019-05-29T14:17:06.661Z,0.70
2019-05-29T14:19:32.946Z,0.70
2019-05-29T14:22:01.049Z,0.50
2019-05-29T14:24:29.846Z,0.70
2019-05-29T14:26:55.387Z,0.70
2019-05-29T14:29:22.153Z,1.23
2019-05-29T14:31:48.608Z,1.00
2019-05-29T14:34:15.042Z,1.37
2019-05-29T14:36:41.323Z,0.70
2019-05-29T14:39:07.895Z,1.03
2019-05-29T14:41:34.068Z,0.60
2019-05-29T14:44:00.204Z,0.90
2019-05-29T14:46:26.352Z,0.77
2019-05-29T14:48:52.944Z,0.90
2019-05-29T14:51:19.089Z,0.73
2019-05-29T14:53:45.239Z,0.67
2019-05-29T14:56:12.696Z,0.80
2019-05-29T14:58:39.358Z,0.80
2019-05-29T15:01:07.062Z,0.80
2019-05-29T15:03:33.750Z,0.80
2019-05-29T15:06:00.099Z,0.63
2019-05-29T15:08:26.531Z,0.70
2019-05-29T15:10:52.978Z,0.77
2019-05-29T15:13:20.679Z,0.70
2019-05-29T15:15:46.983Z,0.50
2019-05-29T15:18:17.329Z,0.70
2019-05-29T15:20:41.656Z,0.70
2019-05-29T15:23:09.218Z,0.80
2019-05-29T15:25:35.552Z,0.57
2019-05-29T15:28:01.973Z,0.57
2019-05-29T15:30:28.352Z,0.67
2019-05-29T15:32:54.477Z,0.60
2019-05-29T15:35:20.992Z,0.60
2019-05-29T15:37:47.252Z,0.60
2019-05-29T15:40:14.939Z,0.80
2019-05-29T15:42:42.108Z,0.60
2019-05-29T15:45:11.824Z,0.53
2019-05-29T15:47:38.471Z,0.70
2019-05-29T15:50:06.953Z,0.70
2019-05-29T15:52:33.330Z,0.63
2019-05-29T15:55:19.543Z,0.60
2019-05-29T15:57:47.390Z,0.60
2019-05-29T16:00:15.479Z,0.70
2019-05-29T16:02:41.938Z,0.70
2019-05-29T16:05:11.160Z,0.70
2019-05-29T16:07:37.901Z,0.60
2019-05-29T16:10:08.215Z,0.60
2019-05-29T16:12:35.015Z,0.70
2019-05-29T16:15:01.250Z,0.60
2019-05-29T16:17:27.378Z,0.60
2019-05-29T16:19:53.630Z,0.60
2019-05-29T16:22:19.911Z,0.60
2019-05-29T16:24:46.300Z,0.80
2019-05-29T16:27:13.780Z,0.53
2019-05-29T16:29:40.360Z,0.63
2019-05-29T16:32:06.554Z,1.00
2019-05-29T16:34:32.707Z,0.87
2019-05-29T16:36:59.057Z,0.87
2019-05-29T16:39:25.279Z,0.70
2019-05-29T16:42:11.864Z,0.60
2019-05-29T16:44:38.231Z,0.80
2019-05-29T16:47:05.084Z,1.00
2019-05-29T16:49:31.218Z,0.87
2019-05-29T16:51:57.421Z,0.80
2019-05-29T16:54:23.818Z,0.90
2019-05-29T16:56:50.183Z,0.90
2019-05-29T16:59:17.002Z,0.87
2019-05-29T17:01:43.730Z,0.90
2019-05-29T17:04:09.856Z,0.80
2019-05-29T17:06:37.448Z,0.60
2019-05-29T17:09:07.048Z,0.70
2019-05-29T17:11:33.221Z,0.90
2019-05-29T17:13:59.620Z,1.03
2019-05-29T17:16:25.887Z,0.77
2019-05-29T17:18:53.012Z,0.70
2019-05-29T17:21:20.664Z,0.90
2019-05-29T17:23:47.206Z,0.77
2019-05-29T17:26:14.565Z,0.70
2019-05-29T17:28:40.916Z,0.87
2019-05-29T17:31:07.752Z,0.80
2019-05-29T17:33:33.979Z,0.90
2019-05-29T17:36:00.237Z,0.80
2019-05-29T17:38:26.570Z,1.10
2019-05-29T17:40:52.799Z,0.63
2019-05-29T17:43:22.067Z,0.60
2019-05-29T17:45:47.745Z,0.60
2019-05-29T17:48:15.343Z,0.40
2019-05-29T17:50:41.842Z,0.60
2019-05-29T17:53:08.480Z,0.70
2019-05-29T17:55:34.712Z,0.60
2019-05-29T17:58:00.850Z,0.60
2019-05-29T18:00:27.424Z,0.47
2019-05-29T18:02:54.022Z,0.50
2019-05-29T18:05:20.553Z,0.60
2019-05-29T18:07:47.159Z,0.60
2019-05-29T18:10:13.707Z,0.47
2019-05-29T18:12:39.995Z,0.60
2019-05-29T18:15:08.214Z,0.40
2019-05-29T18:17:34.883Z,0.50
2019-05-29T18:20:03.152Z,0.53
2019-05-29T18:22:29.631Z,0.50
2019-05-29T18:24:55.999Z,0.40
2019-05-29T18:27:22.282Z,0.60
2019-05-29T18:29:48.574Z,0.73
2019-05-29T18:32:14.692Z,0.50
2019-05-29T18:34:41.214Z,0.80
2019-05-29T18:37:07.409Z,1.00
2019-05-29T18:39:33.704Z,0.90
2019-05-29T18:42:00.087Z,0.80
2019-05-29T18:44:26.918Z,0.70
2019-05-29T18:46:55.026Z,0.70
2019-05-29T18:49:22.169Z,0.77
2019-05-29T18:51:48.911Z,0.60
2019-05-29T18:54:15.462Z,0.63
2019-05-29T18:56:41.631Z,0.60
2019-05-29T18:59:08.298Z,1.00
2019-05-29T19:01:34.764Z,0.77
2019-05-29T19:04:01.066Z,0.57
2019-05-29T19:06:27.721Z,0.80
2019-05-29T19:08:55.747Z,0.90
2019-05-29T19:11:22.049Z,0.90
2019-05-29T19:13:48.562Z,0.77
2019-05-29T19:16:16.559Z,0.70
2019-05-29T19:18:43.176Z,0.70
2019-05-29T19:21:09.613Z,0.77
2019-05-29T19:23:40.135Z,0.70
2019-05-29T19:26:06.638Z,0.90
2019-05-29T19:28:32.926Z,0.80
2019-05-29T19:30:59.486Z,0.80
2019-05-29T19:33:27.388Z,0.90
2019-05-29T19:35:54.768Z,0.97
2019-05-29T19:38:21.335Z,1.10
2019-05-29T19:40:47.691Z,0.70
2019-05-29T19:43:14.414Z,0.90
2019-05-29T19:45:40.610Z,0.90
2019-05-29T19:48:07.008Z,0.90
2019-05-29T19:50:34.946Z,0.93
2019-05-29T19:53:01.724Z,0.80
2019-05-29T19:55:31.759Z,1.07
2019-05-29T19:57:56.883Z,0.90
2019-05-29T20:00:24.096Z,0.83
2019-05-29T20:02:50.336Z,0.93
2019-05-29T20:05:16.979Z,0.90
2019-05-29T20:07:43.317Z,0.80
2019-05-29T20:10:10.185Z,0.93
2019-05-29T20:12:38.269Z,0.60
2019-05-29T20:15:05.713Z,0.80
2019-05-29T20:17:32.093Z,1.00
2019-05-29T20:19:58.705Z,1.00
2019-05-29T20:22:25.306Z,0.87
2019-05-29T20:24:51.478Z,1.03
2019-05-29T20:27:18.277Z,0.80
2019-05-29T20:29:44.550Z,0.80
2019-05-29T20:32:11.299Z,0.77
2019-05-29T20:34:37.504Z,0.90
2019-05-29T20:37:04.071Z,0.80
2019-05-29T20:39:30.274Z,0.80
2019-05-29T20:41:56.817Z,0.67
2019-05-29T20:44:23.257Z,0.80
2019-05-29T20:46:49.487Z,0.70
2019-05-29T20:49:15.783Z,0.70
2019-05-29T20:51:42.460Z,0.73
2019-05-29T20:54:08.701Z,0.80
2019-05-29T20:56:35.832Z,0.70
2019-05-29T20:59:02.210Z,0.70
2019-05-29T21:01:28.818Z,0.60
2019-05-29T21:03:55.055Z,0.70
2019-05-29T21:06:21.410Z,0.70
2019-05-29T21:08:48.105Z,1.17
2019-05-29T21:11:14.496Z,0.70
2019-05-29T21:13:41.543Z,0.60
2019-05-29T21:16:09.179Z,0.70
2019-05-29T21:18:35.851Z,0.50
2019-05-29T21:21:02.720Z,0.70
2019-05-29T21:23:29.145Z,0.80
2019-05-29T21:25:55.425Z,1.00
2019-05-29T21:28:21.771Z,0.63
2019-05-29T21:30:48.036Z,0.67
2019-05-29T21:33:14.357Z,0.60
2019-05-29T21:35:42.107Z,0.60
2019-05-29T21:38:08.627Z,0.67
2019-05-29T21:40:36.214Z,0.70
2019-05-29T21:43:02.779Z,0.67
2019-05-29T21:45:29.182Z,0.80
2019-05-29T21:47:55.470Z,0.80
2019-05-29T21:50:22.022Z,0.90
2019-05-29T21:52:48.191Z,0.70
2019-05-29T21:55:14.891Z,0.63
2019-05-29T21:57:43.917Z,0.50
2019-05-29T22:00:13.789Z,0.83
2019-05-29T22:02:40.411Z,1.20
2019-05-29T22:05:06.928Z,1.00
2019-05-29T22:07:33.491Z,0.80
2019-05-29T22:10:00.900Z,0.70
2019-05-29T22:12:27.324Z,0.90
2019-05-29T22:14:55.040Z,0.83
2019-05-29T22:17:21.580Z,0.70
2019-05-29T22:19:47.742Z,0.67
2019-05-29T22:22:14.231Z,0.67
2019-05-29T22:24:40.592Z,0.87
2019-05-29T22:27:06.789Z,0.80
2019-05-29T22:29:33.216Z,0.83
2019-05-29T22:31:59.560Z,0.77
2019-05-29T22:34:25.805Z,0.87
2019-05-29T22:36:53.893Z,0.93
2019-05-29T22:39:20.133Z,0.90
2019-05-29T22:41:46.673Z,0.83
2019-05-29T22:44:12.910Z,0.83
2019-05-29T22:46:39.429Z,0.70
2019-05-29T22:49:05.901Z,0.77
2019-05-29T22:51:34.875Z,0.70
2019-05-29T22:54:02.076Z,0.93
2019-05-29T22:56:28.303Z,1.00
2019-05-29T22:58:55.956Z,1.00
2019-05-29T23:01:22.475Z,1.20
2019-05-29T23:03:48.789Z,1.10
2019-05-29T23:06:15.072Z,1.10
2019-05-29T23:08:41.298Z,0.80
2019-05-29T23:11:07.782Z,1.00
2019-05-29T23:13:33.967Z,0.90
2019-05-29T23:16:00.785Z,0.90
2019-05-29T23:18:27.213Z,0.90
2019-05-29T23:20:54.295Z,0.87
2019-05-29T23:23:20.773Z,1.10
2019-05-29T23:25:46.926Z,0.97
2019-05-29T23:28:13.038Z,0.80
2019-05-29T23:30:40.401Z,1.10
2019-05-29T23:33:08.577Z,0.93
2019-05-29T23:35:34.692Z,1.60
2019-05-29T23:38:01.339Z,0.90
2019-05-29T23:40:27.688Z,1.10
2019-05-29T23:42:55.320Z,1.10
2019-05-29T23:45:21.983Z,1.30
2019-05-29T23:47:48.220Z,1.00
2019-05-29T23:50:16.050Z,1.30
2019-05-29T23:52:42.352Z,1.33
2019-05-29T23:55:08.986Z,1.23
2019-05-29T23:57:35.591Z,1.20
